createdAt,value
2023-05-14T06:15:00.479Z,76.90
2023-05-14T06:20:00.360Z,77.31
2023-05-14T06:25:00.419Z,76.20
2023-05-14T06:30:00.421Z,74.66
2023-05-14T06:35:00.378Z,74.07
2023-05-14T06:40:00.889Z,75.49
2023-05-14T06:45:00.446Z,74.32
2023-05-14T06:50:00.389Z,73.62
2023-05-14T06:55:00.350Z,74.28
2023-05-14T07:00:02.814Z,74.44
2023-05-14T07:05:00.330Z,74.31
2023-05-14T07:10:00.325Z,74.39
2023-05-14T07:15:00.365Z,71.72
2023-05-14T07:20:00.331Z,69.22
2023-05-14T07:25:00.359Z,63.65
2023-05-14T07:30:00.412Z,62.00
2023-05-14T07:35:00.551Z,61.09
2023-05-14T07:40:00.351Z,60.25
2023-05-14T07:45:00.494Z,60.70
2023-05-14T07:50:00.352Z,58.58
2023-05-14T07:55:02.095Z,58.01
2023-05-14T08:00:00.731Z,59.68
2023-05-14T08:05:00.348Z,58.37
2023-05-14T08:10:00.521Z,57.48
2023-05-14T08:15:01.109Z,59.24
2023-05-14T08:20:00.579Z,58.00
2023-05-14T08:25:00.347Z,55.76
2023-05-14T08:30:00.375Z,55.19
2023-05-14T08:35:00.372Z,54.86
2023-05-14T08:40:00.455Z,52.00
2023-05-14T08:45:02.192Z,51.58
2023-05-14T08:50:02.900Z,52.13
2023-05-14T08:55:03.288Z,50.27
2023-05-14T09:00:01.723Z,50.89
2023-05-14T09:05:01.488Z,49.74
2023-05-14T09:10:01.323Z,49.28
2023-05-14T09:15:00.377Z,49.01
2023-05-14T09:20:00.355Z,48.35
2023-05-14T09:25:05.422Z,50.48
2023-05-14T09:30:04.366Z,50.72
2023-05-14T09:35:08.618Z,48.95
2023-05-14T09:40:05.718Z,49.78
2023-05-14T09:45:00.394Z,48.46
2023-05-14T09:50:00.484Z,47.50
2023-05-14T09:55:00.753Z,47.90
2023-05-14T10:00:00.581Z,48.68
2023-05-14T10:05:02.844Z,46.73
2023-05-14T10:10:02.638Z,46.63
2023-05-14T10:15:05.638Z,46.36
2023-05-14T10:20:02.267Z,44.93
2023-05-14T10:25:02.092Z,47.97
2023-05-14T10:30:04.947Z,44.30
2023-05-14T10:35:00.565Z,47.66
2023-05-14T10:40:02.282Z,45.86
2023-05-14T10:45:04.483Z,47.58
2023-05-14T10:50:03.954Z,43.56
2023-05-14T10:55:03.834Z,47.43
2023-05-14T11:00:01.108Z,41.70
2023-05-14T11:05:03.188Z,45.06
2023-05-14T11:10:03.500Z,42.53
2023-05-14T11:15:03.104Z,41.93
2023-05-14T11:20:00.573Z,42.06
2023-05-14T11:25:00.424Z,42.56
2023-05-14T11:30:01.019Z,40.69
2023-05-14T11:35:00.332Z,41.61
2023-05-14T11:40:00.808Z,40.91
2023-05-14T11:45:00.416Z,41.44
2023-05-14T11:50:00.342Z,44.50
2023-05-14T11:55:01.239Z,43.71
2023-05-14T12:00:00.425Z,43.20
2023-05-14T12:05:00.361Z,42.27
2023-05-14T12:10:03.627Z,44.39
2023-05-14T12:15:00.382Z,40.69
2023-05-14T12:20:00.421Z,42.05
2023-05-14T12:25:00.358Z,39.64
2023-05-14T12:30:19.185Z,42.83
2023-05-14T12:35:00.549Z,40.81
2023-05-14T12:40:00.422Z,40.52
2023-05-14T12:45:00.376Z,40.52
2023-05-14T12:50:00.380Z,37.69
2023-05-14T12:55:00.423Z,38.85
2023-05-14T13:00:01.751Z,40.69
2023-05-14T13:05:00.331Z,41.18
2023-05-14T13:10:00.357Z,41.50
2023-05-14T13:15:00.366Z,42.96
2023-05-14T13:20:00.342Z,41.28
2023-05-14T13:25:00.349Z,40.20
2023-05-14T13:30:00.612Z,40.72
2023-05-14T13:35:00.324Z,37.50
2023-05-14T13:40:00.400Z,38.64
2023-05-14T13:45:00.412Z,41.65
2023-05-14T13:50:00.388Z,43.54
2023-05-14T13:55:00.353Z,43.02
2023-05-14T14:00:00.576Z,42.17
2023-05-14T14:05:00.376Z,42.98
2023-05-14T14:10:00.346Z,42.09
2023-05-14T14:15:00.349Z,41.74
2023-05-14T14:20:00.356Z,38.25
2023-05-14T14:25:00.827Z,40.13
2023-05-14T14:30:00.341Z,41.49
2023-05-14T14:35:00.326Z,41.84
2023-05-14T14:40:00.360Z,39.42
2023-05-14T14:45:00.390Z,41.16
2023-05-14T14:50:00.395Z,41.68
2023-05-14T14:55:00.429Z,46.01
2023-05-14T15:00:02.308Z,46.78
2023-05-14T15:05:00.310Z,46.84
2023-05-14T15:10:00.396Z,46.19
2023-05-14T15:15:00.338Z,47.64
2023-05-14T15:20:00.441Z,48.12
2023-05-14T15:25:00.344Z,46.52
2023-05-14T15:30:00.363Z,45.58
2023-05-14T15:35:00.365Z,45.10
2023-05-14T15:40:00.357Z,44.28
2023-05-14T15:45:00.355Z,44.31
2023-05-14T15:50:00.975Z,43.38
2023-05-14T15:55:00.496Z,43.06
2023-05-14T16:00:00.606Z,42.92
2023-05-14T16:05:00.363Z,42.57
2023-05-14T16:10:00.346Z,42.75
2023-05-14T16:15:00.394Z,44.59
2023-05-14T16:20:00.498Z,44.65
2023-05-14T16:25:03.268Z,43.96
2023-05-14T16:30:00.378Z,45.50
2023-05-14T16:35:00.381Z,46.32
2023-05-14T16:40:00.471Z,46.88
2023-05-14T16:45:00.310Z,46.15
2023-05-14T16:50:00.348Z,46.57
2023-05-14T16:55:00.533Z,46.39
2023-05-14T17:00:00.422Z,46.94
2023-05-14T17:05:01.757Z,47.27
2023-05-14T17:10:00.479Z,48.74
2023-05-14T17:15:01.989Z,50.22
2023-05-14T17:20:00.910Z,51.25
2023-05-14T17:25:00.814Z,53.48
2023-05-14T17:30:01.026Z,53.99
2023-05-14T17:35:00.338Z,59.11
2023-05-14T17:40:00.353Z,58.96
2023-05-14T17:45:00.503Z,60.65
2023-05-14T17:50:00.332Z,60.78
2023-05-14T17:55:00.307Z,61.76
2023-05-14T18:00:01.004Z,62.39
2023-05-14T18:05:00.427Z,62.56
2023-05-14T18:10:00.971Z,63.02
2023-05-14T18:15:00.352Z,63.41
2023-05-14T18:20:00.401Z,63.41
2023-05-14T18:25:00.381Z,63.05
2023-05-14T18:30:00.409Z,63.24
2023-05-14T18:35:00.332Z,63.54
2023-05-14T18:40:01.298Z,64.22
2023-05-14T18:45:00.340Z,64.01
2023-05-14T18:50:00.503Z,65.15
2023-05-14T18:55:00.316Z,65.53
2023-05-14T19:00:00.447Z,66.69
2023-05-14T19:05:00.348Z,67.41
2023-05-14T19:10:00.346Z,68.14
2023-05-14T19:15:00.416Z,69.25
2023-05-14T19:20:00.358Z,69.91
2023-05-14T19:25:00.318Z,70.62
2023-05-14T19:30:00.363Z,71.07
2023-05-14T19:35:00.366Z,70.51
2023-05-14T19:40:00.368Z,70.49
2023-05-14T19:45:00.379Z,72.08
2023-05-14T19:50:00.336Z,72.15
2023-05-14T19:55:00.319Z,72.19
2023-05-14T20:00:00.408Z,73.13
2023-05-14T20:05:00.342Z,71.98
2023-05-14T20:10:00.594Z,71.44
2023-05-14T20:15:00.404Z,72.17
2023-05-14T20:20:00.396Z,72.96
2023-05-14T20:25:00.364Z,73.09
2023-05-14T20:30:00.405Z,73.80
2023-05-14T20:35:00.367Z,73.23
2023-05-14T20:40:01.140Z,72.92
2023-05-14T20:45:00.336Z,74.45
2023-05-14T20:50:00.598Z,73.59
2023-05-14T20:55:02.028Z,73.62
2023-05-14T21:00:01.360Z,75.43
2023-05-14T21:05:00.412Z,74.73
2023-05-14T21:10:00.411Z,75.28
2023-05-14T21:15:00.367Z,75.26
2023-05-14T21:20:00.451Z,75.14
2023-05-14T21:25:00.358Z,75.27
2023-05-14T21:30:00.349Z,75.88
2023-05-14T21:35:00.463Z,76.88
2023-05-14T21:40:00.590Z,75.89
2023-05-14T21:45:00.794Z,77.02
2023-05-14T21:50:00.461Z,76.07
2023-05-14T21:55:00.336Z,76.08
2023-05-14T22:00:02.047Z,77.18
2023-05-14T22:05:00.347Z,77.03
2023-05-14T22:10:00.355Z,76.89
2023-05-14T22:15:00.374Z,77.28
2023-05-14T22:20:02.551Z,77.51
2023-05-14T22:25:00.399Z,78.01
2023-05-14T22:30:00.473Z,78.79
2023-05-14T22:35:00.349Z,78.85
2023-05-14T22:40:00.375Z,79.42
2023-05-14T22:45:00.471Z,78.67
2023-05-14T22:50:00.332Z,80.10
2023-05-14T22:55:00.315Z,80.96
2023-05-14T23:00:00.777Z,80.00
2023-05-14T23:05:00.356Z,80.27
2023-05-14T23:10:00.353Z,79.93
2023-05-14T23:15:00.352Z,80.40
2023-05-14T23:20:00.379Z,80.10
2023-05-14T23:25:00.353Z,80.22
2023-05-14T23:30:00.381Z,79.62
2023-05-14T23:35:00.402Z,79.72
2023-05-14T23:40:00.323Z,80.42
2023-05-14T23:45:00.325Z,81.06
2023-05-14T23:50:00.470Z,81.21
2023-05-14T23:55:00.375Z,81.94
